sensor_id;sensor_type;location;lat;lon;timestamp;P1;durP1;ratioP1;P2;durP2;ratioP2
16127;SDS011;8168;49.036;7.690;2023-06-04T00:01:36;6.63;;;3.50;;
16127;SDS011;8168;49.036;7.690;2023-06-04T00:04:07;9.37;;;3.53;;
16127;SDS011;8168;49.036;7.690;2023-06-04T00:06:37;4.33;;;3.37;;
16127;SDS011;8168;49.036;7.690;2023-06-04T00:09:08;6.13;;;3.17;;
16127;SDS011;8168;49.036;7.690;2023-06-04T00:11:38;3.20;;;2.90;;
16127;SDS011;8168;49.036;7.690;2023-06-04T00:14:09;3.67;;;2.93;;
16127;SDS011;8168;49.036;7.690;2023-06-04T00:16:40;6.57;;;3.47;;
16127;SDS011;8168;49.036;7.690;2023-06-04T00:19:10;7.43;;;3.53;;
16127;SDS011;8168;49.036;7.690;2023-06-04T00:21:41;3.73;;;3.23;;
16127;SDS011;8168;49.036;7.690;2023-06-04T00:24:12;3.30;;;2.80;;
16127;SDS011;8168;49.036;7.690;2023-06-04T00:26:42;7.27;;;3.77;;
16127;SDS011;8168;49.036;7.690;2023-06-04T00:29:13;3.77;;;2.80;;
16127;SDS011;8168;49.036;7.690;2023-06-04T00:31:44;5.30;;;3.57;;
16127;SDS011;8168;49.036;7.690;2023-06-04T00:34:16;3.57;;;3.20;;
16127;SDS011;8168;49.036;7.690;2023-06-04T00:36:47;4.47;;;3.67;;
16127;SDS011;8168;49.036;7.690;2023-06-04T00:39:18;7.03;;;3.63;;
16127;SDS011;8168;49.036;7.690;2023-06-04T00:41:48;6.50;;;3.30;;
16127;SDS011;8168;49.036;7.690;2023-06-04T00:44:19;6.77;;;3.90;;
16127;SDS011;8168;49.036;7.690;2023-06-04T00:46:52;5.73;;;4.17;;
16127;SDS011;8168;49.036;7.690;2023-06-04T00:49:23;4.40;;;3.37;;
16127;SDS011;8168;49.036;7.690;2023-06-04T00:51:54;4.50;;;3.70;;
16127;SDS011;8168;49.036;7.690;2023-06-04T00:54:25;5.87;;;3.40;;
16127;SDS011;8168;49.036;7.690;2023-06-04T00:56:56;3.83;;;2.83;;
16127;SDS011;8168;49.036;7.690;2023-06-04T00:59:27;4.33;;;3.43;;
16127;SDS011;8168;49.036;7.690;2023-06-04T01:02:11;9.40;;;3.57;;
16127;SDS011;8168;49.036;7.690;2023-06-04T01:04:53;4.30;;;3.53;;
16127;SDS011;8168;49.036;7.690;2023-06-04T01:07:25;3.30;;;3.00;;
16127;SDS011;8168;49.036;7.690;2023-06-04T01:10:00;5.60;;;3.37;;
16127;SDS011;8168;49.036;7.690;2023-06-04T01:12:30;4.10;;;3.03;;
16127;SDS011;8168;49.036;7.690;2023-06-04T01:15:01;4.23;;;3.10;;
16127;SDS011;8168;49.036;7.690;2023-06-04T01:17:34;4.03;;;3.27;;
16127;SDS011;8168;49.036;7.690;2023-06-04T01:25:37;4.10;;;2.97;;
16127;SDS011;8168;49.036;7.690;2023-06-04T01:28:11;5.27;;;3.17;;
16127;SDS011;8168;49.036;7.690;2023-06-04T01:30:44;3.50;;;3.10;;
16127;SDS011;8168;49.036;7.690;2023-06-04T01:33:18;3.43;;;2.63;;
16127;SDS011;8168;49.036;7.690;2023-06-04T01:35:49;4.93;;;3.40;;
16127;SDS011;8168;49.036;7.690;2023-06-04T01:38:20;6.73;;;3.20;;
16127;SDS011;8168;49.036;7.690;2023-06-04T01:40:50;3.47;;;2.90;;
16127;SDS011;8168;49.036;7.690;2023-06-04T01:43:26;6.17;;;2.67;;
16127;SDS011;8168;49.036;7.690;2023-06-04T01:45:58;4.83;;;2.97;;
16127;SDS011;8168;49.036;7.690;2023-06-04T01:48:29;5.10;;;3.33;;
16127;SDS011;8168;49.036;7.690;2023-06-04T01:50:59;7.10;;;3.23;;
16127;SDS011;8168;49.036;7.690;2023-06-04T01:53:30;4.00;;;3.23;;
16127;SDS011;8168;49.036;7.690;2023-06-04T01:56:01;5.47;;;3.03;;
16127;SDS011;8168;49.036;7.690;2023-06-04T01:58:32;3.60;;;3.00;;
16127;SDS011;8168;49.036;7.690;2023-06-04T02:01:03;3.57;;;2.80;;
16127;SDS011;8168;49.036;7.690;2023-06-04T02:03:35;3.17;;;2.63;;
16127;SDS011;8168;49.036;7.690;2023-06-04T02:06:06;3.03;;;2.30;;
16127;SDS011;8168;49.036;7.690;2023-06-04T02:08:37;4.37;;;2.70;;
16127;SDS011;8168;49.036;7.690;2023-06-04T02:11:10;4.23;;;3.33;;
16127;SDS011;8168;49.036;7.690;2023-06-04T02:13:40;3.10;;;2.53;;
16127;SDS011;8168;49.036;7.690;2023-06-04T02:16:11;3.67;;;2.27;;
16127;SDS011;8168;49.036;7.690;2023-06-04T02:18:42;4.40;;;2.70;;
16127;SDS011;8168;49.036;7.690;2023-06-04T02:21:12;3.47;;;2.80;;
16127;SDS011;8168;49.036;7.690;2023-06-04T02:23:43;6.73;;;2.50;;
16127;SDS011;8168;49.036;7.690;2023-06-04T02:26:13;4.43;;;2.50;;
16127;SDS011;8168;49.036;7.690;2023-06-04T02:28:47;3.27;;;2.50;;
16127;SDS011;8168;49.036;7.690;2023-06-04T02:31:18;3.27;;;2.87;;
16127;SDS011;8168;49.036;7.690;2023-06-04T02:33:49;8.37;;;3.00;;
16127;SDS011;8168;49.036;7.690;2023-06-04T02:36:19;3.37;;;2.33;;
16127;SDS011;8168;49.036;7.690;2023-06-04T02:38:50;4.60;;;2.60;;
16127;SDS011;8168;49.036;7.690;2023-06-04T02:41:21;2.87;;;2.27;;
16127;SDS011;8168;49.036;7.690;2023-06-04T02:43:52;2.87;;;2.57;;
16127;SDS011;8168;49.036;7.690;2023-06-04T02:46:23;3.10;;;2.33;;
16127;SDS011;8168;49.036;7.690;2023-06-04T02:48:53;3.57;;;2.30;;
16127;SDS011;8168;49.036;7.690;2023-06-04T02:51:24;4.17;;;2.57;;
16127;SDS011;8168;49.036;7.690;2023-06-04T02:53:55;2.50;;;2.10;;
16127;SDS011;8168;49.036;7.690;2023-06-04T02:56:26;5.20;;;2.27;;
16127;SDS011;8168;49.036;7.690;2023-06-04T02:58:57;3.57;;;2.77;;
16127;SDS011;8168;49.036;7.690;2023-06-04T03:01:27;2.57;;;2.30;;
16127;SDS011;8168;49.036;7.690;2023-06-04T03:03:58;2.30;;;2.10;;
16127;SDS011;8168;49.036;7.690;2023-06-04T03:06:28;1.83;;;1.63;;
16127;SDS011;8168;49.036;7.690;2023-06-04T03:08:59;2.50;;;2.30;;
16127;SDS011;8168;49.036;7.690;2023-06-04T03:11:30;4.53;;;2.00;;
16127;SDS011;8168;49.036;7.690;2023-06-04T03:14:00;3.03;;;1.97;;
16127;SDS011;8168;49.036;7.690;2023-06-04T03:16:31;2.53;;;2.00;;
16127;SDS011;8168;49.036;7.690;2023-06-04T03:19:02;4.70;;;2.13;;
16127;SDS011;8168;49.036;7.690;2023-06-04T03:21:33;2.10;;;1.87;;
16127;SDS011;8168;49.036;7.690;2023-06-04T03:24:03;2.73;;;1.87;;
16127;SDS011;8168;49.036;7.690;2023-06-04T03:26:34;2.47;;;1.87;;
16127;SDS011;8168;49.036;7.690;2023-06-04T03:29:05;3.80;;;2.10;;
16127;SDS011;8168;49.036;7.690;2023-06-04T03:31:35;3.17;;;1.83;;
16127;SDS011;8168;49.036;7.690;2023-06-04T03:34:06;2.03;;;1.40;;
16127;SDS011;8168;49.036;7.690;2023-06-04T03:36:39;2.03;;;1.83;;
16127;SDS011;8168;49.036;7.690;2023-06-04T03:39:09;4.57;;;1.93;;
16127;SDS011;8168;49.036;7.690;2023-06-04T03:41:41;5.20;;;2.13;;
16127;SDS011;8168;49.036;7.690;2023-06-04T03:44:15;2.77;;;1.83;;
16127;SDS011;8168;49.036;7.690;2023-06-04T03:46:46;2.30;;;1.77;;
16127;SDS011;8168;49.036;7.690;2023-06-04T03:49:17;1.77;;;1.67;;
16127;SDS011;8168;49.036;7.690;2023-06-04T03:51:47;2.23;;;1.90;;
16127;SDS011;8168;49.036;7.690;2023-06-04T03:54:18;2.33;;;1.70;;
16127;SDS011;8168;49.036;7.690;2023-06-04T03:56:49;1.90;;;1.80;;
16127;SDS011;8168;49.036;7.690;2023-06-04T03:59:20;2.10;;;1.50;;
16127;SDS011;8168;49.036;7.690;2023-06-04T04:01:50;1.83;;;1.70;;
16127;SDS011;8168;49.036;7.690;2023-06-04T04:04:21;3.80;;;1.60;;
16127;SDS011;8168;49.036;7.690;2023-06-04T04:06:52;1.77;;;1.53;;
16127;SDS011;8168;49.036;7.690;2023-06-04T04:09:22;2.33;;;1.90;;
16127;SDS011;8168;49.036;7.690;2023-06-04T04:11:53;1.70;;;1.60;;
16127;SDS011;8168;49.036;7.690;2023-06-04T04:14:23;2.33;;;1.80;;
16127;SDS011;8168;49.036;7.690;2023-06-04T04:16:54;1.60;;;1.50;;
16127;SDS011;8168;49.036;7.690;2023-06-04T04:19:25;3.07;;;1.87;;
16127;SDS011;8168;49.036;7.690;2023-06-04T04:21:55;2.00;;;1.80;;
16127;SDS011;8168;49.036;7.690;2023-06-04T04:24:26;2.43;;;1.40;;
16127;SDS011;8168;49.036;7.690;2023-06-04T04:26:57;3.13;;;1.70;;
16127;SDS011;8168;49.036;7.690;2023-06-04T04:29:28;2.00;;;1.77;;
16127;SDS011;8168;49.036;7.690;2023-06-04T04:32:02;2.37;;;1.67;;
16127;SDS011;8168;49.036;7.690;2023-06-04T04:34:49;1.40;;;1.30;;
16127;SDS011;8168;49.036;7.690;2023-06-04T04:37:24;1.70;;;1.30;;
16127;SDS011;8168;49.036;7.690;2023-06-04T04:39:56;8.13;;;1.73;;
16127;SDS011;8168;49.036;7.690;2023-06-04T04:42:27;2.33;;;1.50;;
16127;SDS011;8168;49.036;7.690;2023-06-04T04:44:57;1.87;;;1.40;;
16127;SDS011;8168;49.036;7.690;2023-06-04T04:47:28;5.90;;;1.83;;
16127;SDS011;8168;49.036;7.690;2023-06-04T04:49:59;2.13;;;1.33;;
16127;SDS011;8168;49.036;7.690;2023-06-04T04:52:29;3.40;;;1.47;;
16127;SDS011;8168;49.036;7.690;2023-06-04T04:55:00;2.07;;;1.20;;
16127;SDS011;8168;49.036;7.690;2023-06-04T04:57:30;2.33;;;1.40;;
16127;SDS011;8168;49.036;7.690;2023-06-04T05:00:02;5.50;;;1.50;;
16127;SDS011;8168;49.036;7.690;2023-06-04T05:02:35;1.40;;;1.30;;
16127;SDS011;8168;49.036;7.690;2023-06-04T05:05:06;1.43;;;1.20;;
16127;SDS011;8168;49.036;7.690;2023-06-04T05:07:37;1.60;;;1.20;;
16127;SDS011;8168;49.036;7.690;2023-06-04T05:10:08;1.90;;;1.23;;
16127;SDS011;8168;49.036;7.690;2023-06-04T05:12:38;1.47;;;1.30;;
16127;SDS011;8168;49.036;7.690;2023-06-04T05:15:09;1.53;;;1.30;;
16127;SDS011;8168;49.036;7.690;2023-06-04T05:17:42;2.27;;;1.33;;
16127;SDS011;8168;49.036;7.690;2023-06-04T05:20:13;1.73;;;1.20;;
16127;SDS011;8168;49.036;7.690;2023-06-04T05:22:45;1.37;;;1.20;;
16127;SDS011;8168;49.036;7.690;2023-06-04T05:25:16;3.60;;;1.23;;
16127;SDS011;8168;49.036;7.690;2023-06-04T05:27:46;0.97;;;0.97;;
16127;SDS011;8168;49.036;7.690;2023-06-04T05:30:19;1.83;;;1.10;;
16127;SDS011;8168;49.036;7.690;2023-06-04T05:32:49;1.83;;;1.20;;
16127;SDS011;8168;49.036;7.690;2023-06-04T05:35:20;1.37;;;1.13;;
16127;SDS011;8168;49.036;7.690;2023-06-04T05:37:51;2.00;;;1.10;;
16127;SDS011;8168;49.036;7.690;2023-06-04T05:40:23;1.70;;;1.13;;
16127;SDS011;8168;49.036;7.690;2023-06-04T05:42:54;1.20;;;1.10;;
16127;SDS011;8168;49.036;7.690;2023-06-04T05:45:24;2.30;;;1.37;;
16127;SDS011;8168;49.036;7.690;2023-06-04T05:47:55;1.53;;;1.40;;
16127;SDS011;8168;49.036;7.690;2023-06-04T05:50:26;4.67;;;1.50;;
16127;SDS011;8168;49.036;7.690;2023-06-04T05:52:57;1.47;;;1.20;;
16127;SDS011;8168;49.036;7.690;2023-06-04T05:55:28;5.23;;;1.30;;
16127;SDS011;8168;49.036;7.690;2023-06-04T05:57:59;1.93;;;1.20;;
16127;SDS011;8168;49.036;7.690;2023-06-04T06:00:29;1.90;;;1.43;;
16127;SDS011;8168;49.036;7.690;2023-06-04T06:03:00;1.50;;;1.20;;
16127;SDS011;8168;49.036;7.690;2023-06-04T06:05:31;1.17;;;1.00;;
16127;SDS011;8168;49.036;7.690;2023-06-04T06:08:02;1.10;;;1.00;;
16127;SDS011;8168;49.036;7.690;2023-06-04T06:10:32;2.83;;;1.57;;
16127;SDS011;8168;49.036;7.690;2023-06-04T06:13:03;1.23;;;1.13;;
16127;SDS011;8168;49.036;7.690;2023-06-04T06:15:34;1.43;;;1.13;;
16127;SDS011;8168;49.036;7.690;2023-06-04T06:18:04;1.37;;;0.90;;
16127;SDS011;8168;49.036;7.690;2023-06-04T06:20:36;2.50;;;1.30;;
16127;SDS011;8168;49.036;7.690;2023-06-04T06:23:06;2.00;;;1.33;;
16127;SDS011;8168;49.036;7.690;2023-06-04T06:25:37;2.03;;;1.30;;
16127;SDS011;8168;49.036;7.690;2023-06-04T06:28:10;1.60;;;0.97;;
16127;SDS011;8168;49.036;7.690;2023-06-04T06:30:41;2.23;;;1.30;;
16127;SDS011;8168;49.036;7.690;2023-06-04T06:33:12;1.73;;;1.37;;
16127;SDS011;8168;49.036;7.690;2023-06-04T06:35:43;2.13;;;1.20;;
16127;SDS011;8168;49.036;7.690;2023-06-04T06:38:16;1.47;;;1.13;;
16127;SDS011;8168;49.036;7.690;2023-06-04T06:40:46;0.97;;;0.97;;
16127;SDS011;8168;49.036;7.690;2023-06-04T06:43:17;1.37;;;1.20;;
16127;SDS011;8168;49.036;7.690;2023-06-04T06:45:48;1.33;;;1.23;;
16127;SDS011;8168;49.036;7.690;2023-06-04T06:48:18;1.80;;;1.23;;
16127;SDS011;8168;49.036;7.690;2023-06-04T06:50:49;2.40;;;1.10;;
16127;SDS011;8168;49.036;7.690;2023-06-04T06:53:20;1.00;;;1.00;;
16127;SDS011;8168;49.036;7.690;2023-06-04T06:55:51;3.47;;;1.30;;
16127;SDS011;8168;49.036;7.690;2023-06-04T06:58:21;1.33;;;1.17;;
16127;SDS011;8168;49.036;7.690;2023-06-04T07:00:53;1.77;;;1.23;;
16127;SDS011;8168;49.036;7.690;2023-06-04T07:03:26;1.47;;;1.20;;
16127;SDS011;8168;49.036;7.690;2023-06-04T07:05:57;3.73;;;1.10;;
16127;SDS011;8168;49.036;7.690;2023-06-04T07:08:27;2.23;;;1.37;;
16127;SDS011;8168;49.036;7.690;2023-06-04T07:10:58;1.80;;;1.23;;
16127;SDS011;8168;49.036;7.690;2023-06-04T07:13:31;2.40;;;1.10;;
16127;SDS011;8168;49.036;7.690;2023-06-04T07:16:05;3.43;;;1.10;;
16127;SDS011;8168;49.036;7.690;2023-06-04T07:18:36;2.40;;;1.10;;
16127;SDS011;8168;49.036;7.690;2023-06-04T07:21:06;2.50;;;1.07;;
16127;SDS011;8168;49.036;7.690;2023-06-04T07:23:37;3.23;;;1.30;;
16127;SDS011;8168;49.036;7.690;2023-06-04T07:26:08;1.43;;;1.10;;
16127;SDS011;8168;49.036;7.690;2023-06-04T07:28:38;1.40;;;1.30;;
16127;SDS011;8168;49.036;7.690;2023-06-04T07:31:09;1.33;;;1.23;;
16127;SDS011;8168;49.036;7.690;2023-06-04T07:33:40;2.97;;;1.10;;
16127;SDS011;8168;49.036;7.690;2023-06-04T07:36:13;1.43;;;1.30;;
16127;SDS011;8168;49.036;7.690;2023-06-04T07:38:44;1.27;;;1.13;;
16127;SDS011;8168;49.036;7.690;2023-06-04T07:41:14;1.77;;;1.10;;
16127;SDS011;8168;49.036;7.690;2023-06-04T07:43:45;2.57;;;1.27;;
16127;SDS011;8168;49.036;7.690;2023-06-04T07:46:16;3.03;;;1.53;;
16127;SDS011;8168;49.036;7.690;2023-06-04T07:48:48;2.03;;;1.10;;
16127;SDS011;8168;49.036;7.690;2023-06-04T07:51:19;2.13;;;1.50;;
16127;SDS011;8168;49.036;7.690;2023-06-04T07:53:49;3.50;;;1.30;;
16127;SDS011;8168;49.036;7.690;2023-06-04T07:56:21;1.73;;;1.50;;
16127;SDS011;8168;49.036;7.690;2023-06-04T07:58:52;2.67;;;1.30;;
16127;SDS011;8168;49.036;7.690;2023-06-04T08:01:22;3.00;;;1.73;;
16127;SDS011;8168;49.036;7.690;2023-06-04T08:03:55;2.90;;;1.50;;
16127;SDS011;8168;49.036;7.690;2023-06-04T08:06:28;2.30;;;1.37;;
16127;SDS011;8168;49.036;7.690;2023-06-04T08:08:59;4.70;;;1.33;;
16127;SDS011;8168;49.036;7.690;2023-06-04T08:11:30;1.77;;;1.30;;
16127;SDS011;8168;49.036;7.690;2023-06-04T08:14:00;1.37;;;1.27;;
16127;SDS011;8168;49.036;7.690;2023-06-04T08:16:34;1.83;;;1.30;;
16127;SDS011;8168;49.036;7.690;2023-06-04T08:19:04;1.47;;;1.20;;
16127;SDS011;8168;49.036;7.690;2023-06-04T08:21:36;1.67;;;1.53;;
16127;SDS011;8168;49.036;7.690;2023-06-04T08:24:08;1.47;;;1.30;;
16127;SDS011;8168;49.036;7.690;2023-06-04T08:26:39;2.07;;;1.37;;
16127;SDS011;8168;49.036;7.690;2023-06-04T08:29:09;2.07;;;1.40;;
16127;SDS011;8168;49.036;7.690;2023-06-04T08:31:40;2.10;;;1.33;;
16127;SDS011;8168;49.036;7.690;2023-06-04T08:34:10;4.17;;;1.37;;
16127;SDS011;8168;49.036;7.690;2023-06-04T08:36:41;2.00;;;1.63;;
16127;SDS011;8168;49.036;7.690;2023-06-04T08:39:12;2.10;;;1.40;;
16127;SDS011;8168;49.036;7.690;2023-06-04T08:41:49;2.47;;;1.70;;
16127;SDS011;8168;49.036;7.690;2023-06-04T08:44:22;2.83;;;1.53;;
16127;SDS011;8168;49.036;7.690;2023-06-04T08:46:53;2.03;;;1.67;;
16127;SDS011;8168;49.036;7.690;2023-06-04T08:49:26;2.27;;;1.70;;
16127;SDS011;8168;49.036;7.690;2023-06-04T08:52:02;3.93;;;1.60;;
16127;SDS011;8168;49.036;7.690;2023-06-04T08:54:33;4.43;;;1.70;;
16127;SDS011;8168;49.036;7.690;2023-06-04T08:57:04;4.53;;;1.47;;
16127;SDS011;8168;49.036;7.690;2023-06-04T08:59:35;1.73;;;1.63;;
16127;SDS011;8168;49.036;7.690;2023-06-04T09:02:07;4.03;;;1.70;;
16127;SDS011;8168;49.036;7.690;2023-06-04T09:04:38;3.13;;;1.67;;
16127;SDS011;8168;49.036;7.690;2023-06-04T09:07:11;1.90;;;1.50;;
16127;SDS011;8168;49.036;7.690;2023-06-04T09:09:44;2.80;;;1.90;;
16127;SDS011;8168;49.036;7.690;2023-06-04T09:12:17;2.57;;;1.70;;
16127;SDS011;8168;49.036;7.690;2023-06-04T09:14:53;2.53;;;1.70;;
16127;SDS011;8168;49.036;7.690;2023-06-04T09:17:24;2.35;;;2.10;;
16127;SDS011;8168;49.036;7.690;2023-06-04T09:19:55;2.77;;;2.00;;
16127;SDS011;8168;49.036;7.690;2023-06-04T09:22:32;2.50;;;2.30;;
16127;SDS011;8168;49.036;7.690;2023-06-04T09:25:04;2.13;;;1.93;;
16127;SDS011;8168;49.036;7.690;2023-06-04T09:27:38;3.13;;;2.70;;
16127;SDS011;8168;49.036;7.690;2023-06-04T09:30:10;1.97;;;1.87;;
16127;SDS011;8168;49.036;7.690;2023-06-04T09:32:43;2.30;;;1.93;;
16127;SDS011;8168;49.036;7.690;2023-06-04T09:35:15;1.90;;;1.73;;
16127;SDS011;8168;49.036;7.690;2023-06-04T09:37:57;3.70;;;2.03;;
16127;SDS011;8168;49.036;7.690;2023-06-04T09:40:37;2.27;;;1.80;;
16127;SDS011;8168;49.036;7.690;2023-06-04T09:43:08;3.10;;;1.73;;
16127;SDS011;8168;49.036;7.690;2023-06-04T09:45:41;2.40;;;2.00;;
16127;SDS011;8168;49.036;7.690;2023-06-04T09:48:18;3.08;;;1.73;;
16127;SDS011;8168;49.036;7.690;2023-06-04T09:50:53;2.65;;;1.83;;
16127;SDS011;8168;49.036;7.690;2023-06-04T09:53:23;4.18;;;1.88;;
16127;SDS011;8168;49.036;7.690;2023-06-04T09:55:59;2.40;;;1.90;;
16127;SDS011;8168;49.036;7.690;2023-06-04T09:58:33;1.98;;;1.88;;
16127;SDS011;8168;49.036;7.690;2023-06-04T10:01:05;2.10;;;1.58;;
16127;SDS011;8168;49.036;7.690;2023-06-04T10:03:36;2.10;;;1.80;;
16127;SDS011;8168;49.036;7.690;2023-06-04T10:06:09;2.00;;;1.65;;
16127;SDS011;8168;49.036;7.690;2023-06-04T10:08:41;1.90;;;1.75;;
16127;SDS011;8168;49.036;7.690;2023-06-04T10:11:17;2.13;;;1.77;;
16127;SDS011;8168;49.036;7.690;2023-06-04T10:16:33;4.43;;;2.05;;
16127;SDS011;8168;49.036;7.690;2023-06-04T10:19:07;2.00;;;1.80;;
16127;SDS011;8168;49.036;7.690;2023-06-04T10:21:38;2.88;;;1.70;;
16127;SDS011;8168;49.036;7.690;2023-06-04T10:24:09;2.53;;;1.70;;
16127;SDS011;8168;49.036;7.690;2023-06-04T10:26:41;1.80;;;1.52;;
16127;SDS011;8168;49.036;7.690;2023-06-04T10:29:12;3.85;;;1.70;;
16127;SDS011;8168;49.036;7.690;2023-06-04T10:31:44;2.13;;;1.92;;
16127;SDS011;8168;49.036;7.690;2023-06-04T10:34:15;6.05;;;4.13;;
16127;SDS011;8168;49.036;7.690;2023-06-04T10:36:47;2.28;;;1.98;;
16127;SDS011;8168;49.036;7.690;2023-06-04T10:39:25;2.53;;;2.22;;
16127;SDS011;8168;49.036;7.690;2023-06-04T10:42:00;3.85;;;1.80;;
16127;SDS011;8168;49.036;7.690;2023-06-04T10:44:43;1.40;;;1.30;;
16127;SDS011;8168;49.036;7.690;2023-06-04T10:47:25;3.20;;;2.00;;
16127;SDS011;8168;49.036;7.690;2023-06-04T10:50:12;1.70;;;1.60;;
16127;SDS011;8168;49.036;7.690;2023-06-04T10:52:54;2.10;;;1.92;;
16127;SDS011;8168;49.036;7.690;2023-06-04T10:55:25;5.30;;;2.80;;
16127;SDS011;8168;49.036;7.690;2023-06-04T11:03:19;2.22;;;2.03;;
16127;SDS011;8168;49.036;7.690;2023-06-04T11:05:50;1.98;;;1.80;;
16127;SDS011;8168;49.036;7.690;2023-06-04T11:08:27;2.03;;;1.27;;
16127;SDS011;8168;49.036;7.690;2023-06-04T11:10:59;3.78;;;1.95;;
16127;SDS011;8168;49.036;7.690;2023-06-04T11:13:44;3.72;;;2.00;;
16127;SDS011;8168;49.036;7.690;2023-06-04T11:16:18;1.98;;;1.88;;
16127;SDS011;8168;49.036;7.690;2023-06-04T11:18:55;4.65;;;2.00;;
16127;SDS011;8168;49.036;7.690;2023-06-04T11:21:27;2.60;;;1.92;;
16127;SDS011;8168;49.036;7.690;2023-06-04T11:23:58;2.35;;;1.70;;
16127;SDS011;8168;49.036;7.690;2023-06-04T11:26:32;2.33;;;1.70;;
16127;SDS011;8168;49.036;7.690;2023-06-04T11:29:08;7.45;;;1.70;;
16127;SDS011;8168;49.036;7.690;2023-06-04T11:31:47;2.95;;;1.83;;
16127;SDS011;8168;49.036;7.690;2023-06-04T11:36:55;1.95;;;1.83;;
16127;SDS011;8168;49.036;7.690;2023-06-04T11:39:33;2.15;;;1.95;;
16127;SDS011;8168;49.036;7.690;2023-06-04T11:42:05;2.95;;;2.00;;
16127;SDS011;8168;49.036;7.690;2023-06-04T11:44:37;2.60;;;1.80;;
16127;SDS011;8168;49.036;7.690;2023-06-04T11:47:08;2.65;;;1.75;;
16127;SDS011;8168;49.036;7.690;2023-06-04T11:49:39;2.53;;;1.83;;
16127;SDS011;8168;49.036;7.690;2023-06-04T11:52:13;2.28;;;1.80;;
16127;SDS011;8168;49.036;7.690;2023-06-04T11:54:43;2.20;;;2.00;;
16127;SDS011;8168;49.036;7.690;2023-06-04T11:57:14;2.63;;;2.30;;
16127;SDS011;8168;49.036;7.690;2023-06-04T11:59:45;3.15;;;1.80;;
16127;SDS011;8168;49.036;7.690;2023-06-04T12:02:16;2.45;;;1.88;;
16127;SDS011;8168;49.036;7.690;2023-06-04T12:04:46;2.40;;;2.15;;
16127;SDS011;8168;49.036;7.690;2023-06-04T12:07:20;3.05;;;2.22;;
16127;SDS011;8168;49.036;7.690;2023-06-04T12:09:54;2.47;;;2.00;;
16127;SDS011;8168;49.036;7.690;2023-06-04T12:12:36;2.20;;;2.00;;
16127;SDS011;8168;49.036;7.690;2023-06-04T12:15:07;3.28;;;2.20;;
16127;SDS011;8168;49.036;7.690;2023-06-04T12:17:49;2.10;;;1.88;;
16127;SDS011;8168;49.036;7.690;2023-06-04T12:20:33;2.45;;;2.00;;
16127;SDS011;8168;49.036;7.690;2023-06-04T12:23:05;3.60;;;1.98;;
16127;SDS011;8168;49.036;7.690;2023-06-04T12:25:37;2.28;;;1.98;;
16127;SDS011;8168;49.036;7.690;2023-06-04T12:28:17;3.47;;;2.22;;
16127;SDS011;8168;49.036;7.690;2023-06-04T12:30:48;2.67;;;2.03;;
16127;SDS011;8168;49.036;7.690;2023-06-04T12:33:19;3.45;;;1.80;;
16127;SDS011;8168;49.036;7.690;2023-06-04T12:35:50;2.30;;;2.10;;
16127;SDS011;8168;49.036;7.690;2023-06-04T12:38:20;3.47;;;2.60;;
16127;SDS011;8168;49.036;7.690;2023-06-04T12:40:51;4.93;;;2.22;;
16127;SDS011;8168;49.036;7.690;2023-06-04T12:43:21;2.00;;;1.85;;
16127;SDS011;8168;49.036;7.690;2023-06-04T12:45:52;3.15;;;1.67;;
16127;SDS011;8168;49.036;7.690;2023-06-04T12:48:23;2.67;;;1.80;;
16127;SDS011;8168;49.036;7.690;2023-06-04T12:50:53;2.80;;;2.10;;
16127;SDS011;8168;49.036;7.690;2023-06-04T12:53:24;2.08;;;1.92;;
16127;SDS011;8168;49.036;7.690;2023-06-04T12:55:54;3.20;;;2.17;;
16127;SDS011;8168;49.036;7.690;2023-06-04T12:58:25;2.50;;;2.05;;
16127;SDS011;8168;49.036;7.690;2023-06-04T13:00:55;2.38;;;2.17;;
16127;SDS011;8168;49.036;7.690;2023-06-04T13:03:26;2.58;;;2.10;;
16127;SDS011;8168;49.036;7.690;2023-06-04T13:05:57;3.28;;;2.10;;
16127;SDS011;8168;49.036;7.690;2023-06-04T13:08:28;3.60;;;2.13;;
16127;SDS011;8168;49.036;7.690;2023-06-04T13:10:59;5.28;;;2.75;;
16127;SDS011;8168;49.036;7.690;2023-06-04T13:13:29;2.30;;;2.10;;
16127;SDS011;8168;49.036;7.690;2023-06-04T13:16:00;3.28;;;2.45;;
16127;SDS011;8168;49.036;7.690;2023-06-04T13:18:31;4.40;;;3.17;;
16127;SDS011;8168;49.036;7.690;2023-06-04T13:21:02;2.20;;;1.98;;
16127;SDS011;8168;49.036;7.690;2023-06-04T13:23:32;2.95;;;2.50;;
16127;SDS011;8168;49.036;7.690;2023-06-04T13:26:03;2.30;;;2.10;;
16127;SDS011;8168;49.036;7.690;2023-06-04T13:28:34;2.10;;;1.90;;
16127;SDS011;8168;49.036;7.690;2023-06-04T13:31:04;5.15;;;2.83;;
16127;SDS011;8168;49.036;7.690;2023-06-04T13:33:36;3.10;;;2.22;;
16127;SDS011;8168;49.036;7.690;2023-06-04T13:36:06;2.72;;;2.45;;
16127;SDS011;8168;49.036;7.690;2023-06-04T13:38:37;2.00;;;1.80;;
16127;SDS011;8168;49.036;7.690;2023-06-04T13:41:08;2.25;;;2.05;;
16127;SDS011;8168;49.036;7.690;2023-06-04T13:43:38;2.75;;;2.13;;
16127;SDS011;8168;49.036;7.690;2023-06-04T13:46:09;3.83;;;2.38;;
16127;SDS011;8168;49.036;7.690;2023-06-04T13:48:39;4.15;;;2.25;;
16127;SDS011;8168;49.036;7.690;2023-06-04T13:51:10;3.13;;;2.17;;
16127;SDS011;8168;49.036;7.690;2023-06-04T13:53:41;3.42;;;2.10;;
16127;SDS011;8168;49.036;7.690;2023-06-04T13:56:12;2.50;;;2.28;;
16127;SDS011;8168;49.036;7.690;2023-06-04T13:58:42;2.60;;;2.40;;
16127;SDS011;8168;49.036;7.690;2023-06-04T14:01:13;5.18;;;2.30;;
16127;SDS011;8168;49.036;7.690;2023-06-04T14:03:43;2.70;;;1.98;;
16127;SDS011;8168;49.036;7.690;2023-06-04T14:06:14;2.30;;;2.10;;
16127;SDS011;8168;49.036;7.690;2023-06-04T14:08:45;4.22;;;2.17;;
16127;SDS011;8168;49.036;7.690;2023-06-04T14:11:15;2.53;;;2.08;;
16127;SDS011;8168;49.036;7.690;2023-06-04T14:13:46;3.13;;;2.38;;
16127;SDS011;8168;49.036;7.690;2023-06-04T14:16:16;2.83;;;2.22;;
16127;SDS011;8168;49.036;7.690;2023-06-04T14:18:47;2.55;;;2.15;;
16127;SDS011;8168;49.036;7.690;2023-06-04T14:21:18;3.17;;;2.53;;
16127;SDS011;8168;49.036;7.690;2023-06-04T14:23:48;3.00;;;2.42;;
16127;SDS011;8168;49.036;7.690;2023-06-04T14:26:20;2.78;;;2.30;;
16127;SDS011;8168;49.036;7.690;2023-06-04T14:28:50;2.75;;;2.28;;
16127;SDS011;8168;49.036;7.690;2023-06-04T14:31:21;2.28;;;2.08;;
16127;SDS011;8168;49.036;7.690;2023-06-04T14:33:52;2.42;;;2.22;;
16127;SDS011;8168;49.036;7.690;2023-06-04T14:36:22;2.80;;;2.10;;
16127;SDS011;8168;49.036;7.690;2023-06-04T14:38:53;3.22;;;2.35;;
16127;SDS011;8168;49.036;7.690;2023-06-04T14:41:23;6.63;;;2.90;;
16127;SDS011;8168;49.036;7.690;2023-06-04T14:43:54;2.60;;;2.40;;
16127;SDS011;8168;49.036;7.690;2023-06-04T14:46:25;3.85;;;2.60;;
16127;SDS011;8168;49.036;7.690;2023-06-04T14:48:56;2.95;;;2.65;;
16127;SDS011;8168;49.036;7.690;2023-06-04T14:51:26;2.92;;;2.63;;
16127;SDS011;8168;49.036;7.690;2023-06-04T14:53:57;3.88;;;2.70;;
16127;SDS011;8168;49.036;7.690;2023-06-04T14:56:27;2.88;;;2.50;;
16127;SDS011;8168;49.036;7.690;2023-06-04T14:59:00;2.70;;;2.50;;
16127;SDS011;8168;49.036;7.690;2023-06-04T15:01:31;3.03;;;2.70;;
16127;SDS011;8168;49.036;7.690;2023-06-04T15:04:02;2.88;;;2.58;;
16127;SDS011;8168;49.036;7.690;2023-06-04T15:06:33;5.03;;;2.22;;
16127;SDS011;8168;49.036;7.690;2023-06-04T15:09:04;2.70;;;2.33;;
16127;SDS011;8168;49.036;7.690;2023-06-04T15:11:35;2.38;;;2.17;;
16127;SDS011;8168;49.036;7.690;2023-06-04T15:14:06;2.55;;;2.00;;
16127;SDS011;8168;49.036;7.690;2023-06-04T15:16:36;3.40;;;2.60;;
16127;SDS011;8168;49.036;7.690;2023-06-04T15:19:08;2.08;;;1.95;;
16127;SDS011;8168;49.036;7.690;2023-06-04T15:21:39;2.17;;;1.98;;
16127;SDS011;8168;49.036;7.690;2023-06-04T15:24:10;2.58;;;2.10;;
16127;SDS011;8168;49.036;7.690;2023-06-04T15:26:41;2.33;;;2.00;;
16127;SDS011;8168;49.036;7.690;2023-06-04T15:29:11;2.72;;;1.92;;
16127;SDS011;8168;49.036;7.690;2023-06-04T15:31:42;3.25;;;2.70;;
16127;SDS011;8168;49.036;7.690;2023-06-04T15:34:13;2.78;;;2.45;;
16127;SDS011;8168;49.036;7.690;2023-06-04T15:36:43;2.70;;;2.00;;
16127;SDS011;8168;49.036;7.690;2023-06-04T15:39:16;3.30;;;2.10;;
16127;SDS011;8168;49.036;7.690;2023-06-04T15:41:47;2.30;;;2.08;;
16127;SDS011;8168;49.036;7.690;2023-06-04T15:44:17;2.25;;;2.05;;